createdAt,value
2022-09-25T00:00:31.167Z,92369.44
2022-09-25T00:03:04.049Z,92371.75
2022-09-25T00:05:37.439Z,92355.28
2022-09-25T00:08:10.338Z,92368.75
2022-09-25T00:10:44.337Z,92365.41
2022-09-25T00:13:18.303Z,92366.94
2022-09-25T00:15:52.393Z,92358.88
2022-09-25T00:18:39.823Z,92356.34
2022-09-25T00:21:15.128Z,92359.16
2022-09-25T00:23:48.156Z,92353.22
2022-09-25T00:26:20.499Z,92354.53
2022-09-25T00:28:52.842Z,92358.44
2022-09-25T00:31:25.481Z,92353.53
2022-09-25T00:34:00.603Z,92358.47
2022-09-25T00:36:34.080Z,92352.28
2022-09-25T00:39:06.337Z,92348.19
2022-09-25T00:41:38.837Z,92337.81
2022-09-25T00:44:51.629Z,92340.66
2022-09-25T00:47:30.532Z,92343.81
2022-09-25T00:50:12.179Z,92345.91
2022-09-25T00:52:46.817Z,92341.00
2022-09-25T00:55:19.698Z,92336.88
2022-09-25T00:57:56.276Z,92329.13
2022-09-25T01:00:28.900Z,92327.84
2022-09-25T01:03:03.189Z,92336.38
2022-09-25T01:05:38.221Z,92330.50
2022-09-25T01:08:13.880Z,92329.97
2022-09-25T01:10:46.347Z,92324.53
2022-09-25T01:13:20.030Z,92327.63
2022-09-25T01:15:59.119Z,92317.00
2022-09-25T01:18:46.086Z,92320.91
2022-09-25T01:21:30.039Z,92322.47
2022-09-25T01:24:34.177Z,92319.88
2022-09-25T01:27:33.138Z,92313.97
2022-09-25T01:30:12.154Z,92313.97
2022-09-25T01:33:03.403Z,92317.38
2022-09-25T01:35:45.696Z,92314.25
2022-09-25T01:38:26.087Z,92321.78
2022-09-25T01:41:04.735Z,92320.47
2022-09-25T01:43:41.091Z,92320.72
2022-09-25T01:46:17.143Z,92329.31
2022-09-25T01:48:55.167Z,92334.22
2022-09-25T01:51:32.257Z,92330.09
2022-09-25T01:54:10.565Z,92336.28
2022-09-25T01:56:49.954Z,92337.34
2022-09-25T01:59:29.810Z,92313.56
2022-09-25T02:02:05.918Z,92317.72
2022-09-25T02:04:42.599Z,92318.22
2022-09-25T02:07:21.564Z,92318.47
2022-09-25T02:09:58.072Z,92303.97
2022-09-25T02:12:34.622Z,92314.84
2022-09-25T02:15:13.090Z,92288.19
2022-09-25T02:18:11.108Z,92311.75
2022-09-25T02:20:47.592Z,92327.28
2022-09-25T02:23:24.788Z,92321.59
2022-09-25T02:26:04.162Z,92331.44
2022-09-25T02:28:36.633Z,92335.84
2022-09-25T02:31:12.410Z,92335.84
2022-09-25T02:33:45.469Z,92330.13
2022-09-25T02:36:19.530Z,92323.91
2022-09-25T02:38:55.304Z,92314.09
2022-09-25T02:41:43.644Z,92315.88
2022-09-25T02:44:27.236Z,92326.78
2022-09-25T02:47:12.660Z,92316.44
2022-09-25T02:49:51.467Z,92316.66
2022-09-25T02:52:33.054Z,92298.03
2022-09-25T02:55:11.699Z,92314.59
2022-09-25T02:57:51.214Z,92308.66
2022-09-25T03:00:23.579Z,92310.19
2022-09-25T03:02:59.219Z,92307.88
2022-09-25T03:05:32.280Z,92312.00
2022-09-25T03:08:23.304Z,92310.72
2022-09-25T03:10:57.023Z,92298.81
2022-09-25T03:13:31.283Z,92310.72
2022-09-25T03:16:08.154Z,92296.19
2022-09-25T03:18:40.757Z,92300.59
2022-09-25T03:21:13.831Z,92286.88
2022-09-25T03:23:46.180Z,92283.78
2022-09-25T03:26:18.508Z,92292.59
2022-09-25T03:28:51.330Z,92287.91
2022-09-25T03:31:23.868Z,92304.25
2022-09-25T03:33:56.461Z,92285.88
2022-09-25T03:36:30.970Z,92299.56
2022-09-25T03:39:05.329Z,92306.03
2022-09-25T03:41:37.600Z,92309.94
2022-09-25T03:44:10.155Z,92308.63
2022-09-25T03:46:42.427Z,92316.16
2022-09-25T03:49:14.734Z,92311.47
2022-09-25T03:51:47.756Z,92313.81
2022-09-25T03:54:20.119Z,92313.31
2022-09-25T03:56:52.382Z,92312.25
2022-09-25T03:59:24.817Z,92310.97
2022-09-25T04:01:57.515Z,92317.44
2022-09-25T04:04:29.787Z,92315.91
2022-09-25T04:07:02.889Z,92322.09
2022-09-25T04:09:35.154Z,92316.94
2022-09-25T04:12:08.244Z,92313.56
2022-09-25T04:14:45.138Z,92316.16
2022-09-25T04:17:17.716Z,92320.03
2022-09-25T04:19:50.272Z,92326.50
2022-09-25T04:22:23.432Z,92329.34
2022-09-25T04:24:56.478Z,92314.34
2022-09-25T04:27:28.742Z,92317.94
2022-09-25T04:30:01.466Z,92321.88
2022-09-25T04:32:51.674Z,92317.69
2022-09-25T04:35:24.055Z,92338.69
2022-09-25T04:37:57.074Z,92321.31
2022-09-25T04:40:30.227Z,92320.03
2022-09-25T04:43:04.673Z,92321.31
2022-09-25T04:45:37.386Z,92326.25
2022-09-25T04:48:09.808Z,92330.13
2022-09-25T04:50:47.894Z,92315.63
2022-09-25T04:53:22.242Z,92321.88
2022-09-25T04:55:55.178Z,92322.88
2022-09-25T04:58:27.663Z,92325.47
2022-09-25T05:01:02.436Z,92326.50
2022-09-25T05:03:35.094Z,92323.16
2022-09-25T05:06:07.763Z,92328.34
2022-09-25T05:08:40.803Z,92326.00
2022-09-25T05:11:13.101Z,92332.47
2022-09-25T05:13:50.535Z,92318.75
2022-09-25T05:16:22.925Z,92317.69
2022-09-25T05:18:55.815Z,92313.59
2022-09-25T05:21:28.063Z,92317.19
2022-09-25T05:24:02.056Z,92310.19
2022-09-25T05:26:34.605Z,92321.84
2022-09-25T05:29:07.132Z,92318.69
2022-09-25T05:31:41.899Z,92313.44
2022-09-25T05:34:14.403Z,92311.84
2022-09-25T05:36:46.739Z,92316.44
2022-09-25T05:39:19.779Z,92316.34
2022-09-25T05:41:52.136Z,92313.63
2022-09-25T05:44:27.673Z,92312.72
2022-09-25T05:46:59.998Z,92311.53
2022-09-25T05:49:32.306Z,92317.56
2022-09-25T05:52:04.603Z,92319.44
2022-09-25T05:54:37.559Z,92321.22
2022-09-25T05:57:09.953Z,92324.63
2022-09-25T05:59:42.304Z,92326.69
2022-09-25T06:02:14.943Z,92311.81
2022-09-25T06:04:47.303Z,92310.41
2022-09-25T06:07:19.643Z,92310.78
2022-09-25T06:09:52.634Z,92305.47
2022-09-25T06:12:25.001Z,92311.03
2022-09-25T06:14:57.536Z,92303.25
2022-09-25T06:17:30.303Z,92306.72
2022-09-25T06:20:02.838Z,92311.44
2022-09-25T06:22:35.145Z,92307.69
2022-09-25T06:25:10.212Z,92317.97
2022-09-25T06:27:42.544Z,92320.16
2022-09-25T06:30:14.886Z,92313.16
2022-09-25T06:32:47.350Z,92318.66
2022-09-25T06:35:20.051Z,92313.22
2022-09-25T06:37:52.332Z,92307.28
2022-09-25T06:40:27.335Z,92319.81
2022-09-25T06:43:00.943Z,92318.75
2022-09-25T06:45:34.891Z,92318.47
2022-09-25T06:48:09.774Z,92326.63
2022-09-25T06:50:45.754Z,92313.00
2022-09-25T06:53:20.179Z,92322.56
2022-09-25T06:55:56.631Z,92317.59
2022-09-25T06:58:30.062Z,92319.56
2022-09-25T07:01:06.307Z,92323.09
2022-09-25T07:03:44.016Z,92329.28
2022-09-25T07:06:18.183Z,92336.34
2022-09-25T07:08:51.362Z,92340.91
2022-09-25T07:11:26.112Z,92353.72
2022-09-25T07:13:58.675Z,92360.69
2022-09-25T07:16:31.863Z,92360.25
2022-09-25T07:19:04.303Z,92361.66
2022-09-25T07:21:37.031Z,92369.81
2022-09-25T07:24:10.813Z,92370.28
2022-09-25T07:26:43.825Z,92368.72
2022-09-25T07:29:16.220Z,92363.31
2022-09-25T07:31:48.543Z,92362.81
2022-09-25T07:34:20.874Z,92352.16
2022-09-25T07:36:54.574Z,92344.06
2022-09-25T07:39:26.886Z,92334.91
2022-09-25T07:41:59.977Z,92335.72
2022-09-25T07:44:37.890Z,92327.53
2022-09-25T07:47:14.463Z,92326.72
2022-09-25T07:49:46.878Z,92316.31
2022-09-25T07:52:19.175Z,92312.28
2022-09-25T07:54:51.521Z,92319.44
2022-09-25T07:57:24.619Z,92299.91
2022-09-25T07:59:56.852Z,92309.19
2022-09-25T08:02:29.268Z,92314.69
2022-09-25T08:05:01.615Z,92305.56
2022-09-25T08:07:33.956Z,92315.69
2022-09-25T08:10:07.363Z,92320.19
2022-09-25T08:12:40.339Z,92314.47
2022-09-25T08:15:13.934Z,92313.06
2022-09-25T08:17:46.248Z,92301.97
2022-09-25T08:20:18.853Z,92299.19
2022-09-25T08:22:53.329Z,92305.19
2022-09-25T08:25:25.673Z,92298.97
2022-09-25T08:27:58.611Z,92290.63
2022-09-25T08:30:31.237Z,92289.47
2022-09-25T08:33:03.667Z,92285.53
2022-09-25T08:35:36.380Z,92277.47
2022-09-25T08:38:10.486Z,92290.03
2022-09-25T08:40:49.608Z,92291.41
2022-09-25T08:43:25.353Z,92304.97
2022-09-25T08:46:21.015Z,92301.16
2022-09-25T08:49:05.547Z,92295.66
2022-09-25T08:51:40.991Z,92306.88
2022-09-25T08:54:22.187Z,92306.88
2022-09-25T08:56:58.049Z,92295.91
2022-09-25T08:59:37.919Z,92295.47
2022-09-25T09:02:14.108Z,92290.34
2022-09-25T09:04:50.888Z,92295.28
2022-09-25T09:07:27.868Z,92288.25
2022-09-25T09:10:06.142Z,92277.94
2022-09-25T09:12:42.742Z,92282.00
2022-09-25T09:15:26.782Z,92285.91
2022-09-25T09:18:01.011Z,92280.59
2022-09-25T09:20:41.331Z,92284.34
2022-09-25T09:23:19.574Z,92284.50
2022-09-25T09:26:00.967Z,92282.63
2022-09-25T09:29:04.725Z,92286.66
2022-09-25T09:31:51.507Z,92275.22
2022-09-25T09:37:51.495Z,92265.91
2022-09-25T09:40:38.924Z,92262.00
2022-09-25T09:43:19.573Z,92257.09
2022-09-25T09:45:58.315Z,92271.78
2022-09-25T09:48:39.343Z,92258.31
2022-09-25T09:51:16.072Z,92263.09
2022-09-25T09:53:51.839Z,92267.81
2022-09-25T09:56:26.800Z,92265.59
2022-09-25T09:59:02.858Z,92268.00
2022-09-25T10:01:42.358Z,92255.63
2022-09-25T10:04:19.151Z,92263.97
2022-09-25T10:07:00.914Z,92257.16
2022-09-25T10:09:33.223Z,92255.31
2022-09-25T10:12:11.903Z,92259.41
2022-09-25T10:14:46.970Z,92253.13
2022-09-25T10:17:23.426Z,92243.16
2022-09-25T10:20:00.227Z,92247.88
2022-09-25T10:22:38.183Z,92244.28
2022-09-25T10:25:10.561Z,92242.88
2022-09-25T10:27:45.427Z,92235.88
2022-09-25T10:30:20.043Z,92227.97
2022-09-25T10:32:57.926Z,92227.28
2022-09-25T10:35:43.085Z,92229.56
2022-09-25T10:38:30.503Z,92230.31
2022-09-25T10:41:06.311Z,92228.66
2022-09-25T10:43:51.377Z,92230.38
2022-09-25T10:46:47.323Z,92222.59
2022-09-25T10:49:39.767Z,92210.06
2022-09-25T10:52:14.486Z,92229.03
2022-09-25T10:54:47.431Z,92229.97
2022-09-25T10:57:33.419Z,92224.59
2022-09-25T11:00:22.886Z,92234.88
2022-09-25T11:02:59.088Z,92232.13
2022-09-25T11:05:34.527Z,92209.63
2022-09-25T11:08:08.560Z,92211.13
2022-09-25T11:10:50.561Z,92210.63
2022-09-25T11:13:25.402Z,92204.41
2022-09-25T11:16:00.502Z,92198.56
2022-09-25T11:18:40.041Z,92200.91
2022-09-25T11:21:23.424Z,92199.53
2022-09-25T11:24:03.983Z,92182.81
2022-09-25T11:26:40.630Z,92198.53
2022-09-25T11:29:20.771Z,92195.09
2022-09-25T11:32:02.207Z,92184.22
2022-09-25T11:34:48.755Z,92201.66
2022-09-25T11:37:26.943Z,92202.22
2022-09-25T11:40:28.983Z,92180.75
2022-09-25T11:43:05.888Z,92175.50
2022-09-25T11:45:47.306Z,92179.50
2022-09-25T11:48:32.179Z,92182.75
2022-09-25T11:51:16.296Z,92190.28
2022-09-25T11:54:17.955Z,92184.16
2022-09-25T11:56:59.755Z,92180.19
2022-09-25T11:59:44.998Z,92152.84
2022-09-25T12:02:40.136Z,92158.47
2022-09-25T12:05:30.335Z,92156.75
2022-09-25T12:08:17.222Z,92162.94
2022-09-25T12:10:56.115Z,92153.00
2022-09-25T12:13:40.456Z,92152.81
2022-09-25T12:16:23.161Z,92154.84
2022-09-25T12:19:10.086Z,92150.38
2022-09-25T12:21:50.194Z,92143.06
2022-09-25T12:24:33.423Z,92133.84
2022-09-25T12:27:14.475Z,92142.78
2022-09-25T12:30:06.039Z,92144.16
2022-09-25T12:32:54.451Z,92142.25
2022-09-25T12:35:37.696Z,92137.16
2022-09-25T12:38:18.648Z,92131.81
2022-09-25T12:40:54.746Z,92124.09
2022-09-25T12:43:32.818Z,92140.22
2022-09-25T12:46:12.021Z,92125.34
2022-09-25T12:48:49.799Z,92108.06
2022-09-25T12:51:39.744Z,92111.91
2022-09-25T12:54:22.508Z,92106.34
2022-09-25T12:56:58.446Z,92112.69
2022-09-25T12:59:39.445Z,92113.94
2022-09-25T13:02:24.743Z,92105.28
2022-09-25T13:05:06.108Z,92102.25
2022-09-25T13:07:45.105Z,92095.31
2022-09-25T13:10:26.716Z,92085.72
2022-09-25T13:13:02.217Z,92085.81
2022-09-25T13:15:38.090Z,92086.22
2022-09-25T13:18:17.096Z,92080.81
2022-09-25T13:20:51.826Z,92089.47
2022-09-25T13:23:29.088Z,92081.72
2022-09-25T13:26:10.370Z,92056.38
2022-09-25T13:28:51.078Z,92063.31
2022-09-25T13:31:26.535Z,92059.31
2022-09-25T13:34:04.839Z,92071.28
2022-09-25T13:36:40.046Z,92069.78
2022-09-25T13:39:40.714Z,92063.72
2022-09-25T13:42:21.404Z,92055.97
2022-09-25T13:45:05.500Z,92051.81
2022-09-25T13:47:56.889Z,92054.72
2022-09-25T13:50:35.993Z,92053.06
2022-09-25T13:53:48.675Z,92045.91
2022-09-25T13:56:29.282Z,92057.38
2022-09-25T13:59:20.527Z,92057.59
2022-09-25T14:01:59.117Z,92042.41
2022-09-25T14:04:36.847Z,92053.50
2022-09-25T14:07:20.927Z,92047.19
2022-09-25T14:09:56.268Z,92058.09
2022-09-25T14:12:41.800Z,92054.16
2022-09-25T14:15:34.798Z,92057.81
2022-09-25T14:18:15.586Z,92059.88
2022-09-25T14:20:50.385Z,92050.13
2022-09-25T14:23:26.537Z,92045.59
2022-09-25T14:25:59.946Z,92043.97
2022-09-25T14:28:34.205Z,92033.38
2022-09-25T14:31:23.889Z,92046.88
2022-09-25T14:34:25.186Z,92053.44
2022-09-25T14:37:13.516Z,92046.78
2022-09-25T14:39:57.109Z,92050.91
2022-09-25T14:42:47.558Z,92051.38
2022-09-25T14:45:50.186Z,92044.53
2022-09-25T14:48:26.912Z,92044.13
2022-09-25T14:51:02.168Z,92047.94
2022-09-25T14:53:37.431Z,92044.72
2022-09-25T14:56:14.528Z,92046.56
2022-09-25T14:58:49.601Z,92051.47
2022-09-25T15:01:26.802Z,92047.03
2022-09-25T15:04:01.786Z,92054.47
2022-09-25T15:06:35.744Z,92059.84
2022-09-25T15:09:28.219Z,92060.78
2022-09-25T15:12:15.562Z,92058.91
2022-09-25T15:14:58.871Z,92047.78
2022-09-25T15:17:32.995Z,92049.75
2022-09-25T15:20:11.277Z,92055.53
2022-09-25T15:22:47.967Z,92052.72
2022-09-25T15:25:23.537Z,92062.72
2022-09-25T15:27:58.040Z,92057.63
2022-09-25T15:30:31.529Z,92054.38
2022-09-25T15:33:04.090Z,92051.66
2022-09-25T15:35:36.417Z,92059.19
2022-09-25T15:38:12.925Z,92054.34
2022-09-25T15:40:54.285Z,92035.75
2022-09-25T15:43:29.267Z,92052.00
2022-09-25T15:46:31.337Z,92046.78
2022-09-25T15:49:05.508Z,92043.13
2022-09-25T15:51:37.884Z,92046.78
2022-09-25T15:54:29.838Z,92043.69
2022-09-25T15:57:05.937Z,92040.69
2022-09-25T16:00:02.841Z,92030.66
2022-09-25T16:03:01.005Z,92037.34
2022-09-25T16:05:35.697Z,92036.09
2022-09-25T16:08:28.604Z,92018.41
2022-09-25T16:11:12.479Z,92031.16
2022-09-25T16:13:47.878Z,92030.25
2022-09-25T16:16:28.779Z,92034.16
2022-09-25T16:19:26.630Z,92035.97
2022-09-25T16:22:03.131Z,92033.94
2022-09-25T16:24:35.570Z,92045.53
2022-09-25T16:27:20.564Z,92042.38
2022-09-25T16:29:54.375Z,92054.41
2022-09-25T16:32:28.414Z,92056.91
2022-09-25T16:35:03.017Z,92065.28
2022-09-25T16:37:35.930Z,92062.31
2022-09-25T16:40:24.354Z,92060.69
2022-09-25T16:42:57.748Z,92049.50
2022-09-25T16:45:33.426Z,92052.31
2022-09-25T16:48:28.187Z,92049.09
2022-09-25T16:51:00.814Z,92057.81
2022-09-25T16:53:33.623Z,92063.22
2022-09-25T16:56:06.218Z,92069.78
2022-09-25T16:58:38.507Z,92069.00
2022-09-25T17:01:11.247Z,92075.16
2022-09-25T17:03:50.669Z,92069.13
2022-09-25T17:06:25.658Z,92072.41
2022-09-25T17:08:59.214Z,92064.09
2022-09-25T17:11:31.583Z,92074.41
2022-09-25T17:14:03.944Z,92082.16
2022-09-25T17:16:36.347Z,92085.50
2022-09-25T17:19:15.770Z,92084.72
2022-09-25T17:21:50.551Z,92083.88
2022-09-25T17:24:26.214Z,92086.41
2022-09-25T17:26:58.609Z,92075.63
2022-09-25T17:29:30.867Z,92071.34
2022-09-25T17:32:03.223Z,92074.19
2022-09-25T17:34:46.023Z,92087.91
2022-09-25T17:37:18.330Z,92085.47
2022-09-25T17:39:50.630Z,92083.63
2022-09-25T17:42:23.651Z,92090.97
2022-09-25T17:44:56.791Z,92082.63
2022-09-25T17:47:31.011Z,92087.69
2022-09-25T17:50:04.459Z,92085.06
2022-09-25T17:52:36.936Z,92091.41
2022-09-25T17:55:15.687Z,92093.34
2022-09-25T17:57:48.355Z,92089.63
2022-09-25T18:00:20.715Z,92090.81
2022-09-25T18:02:53.059Z,92095.75
2022-09-25T18:05:28.832Z,92097.94
2022-09-25T18:08:01.397Z,92096.63
2022-09-25T18:10:35.875Z,92094.66
2022-09-25T18:13:14.634Z,92094.88
2022-09-25T18:15:50.049Z,92094.34
2022-09-25T18:18:22.889Z,92095.09
2022-09-25T18:21:14.131Z,92103.44
2022-09-25T18:23:46.452Z,92098.50
2022-09-25T18:26:18.819Z,92098.06
2022-09-25T18:28:51.276Z,92101.44
2022-09-25T18:31:23.753Z,92093.56
2022-09-25T18:33:56.054Z,92090.19
2022-09-25T18:36:29.010Z,92090.03
2022-09-25T18:39:01.394Z,92092.81
2022-09-25T18:41:36.312Z,92093.56
2022-09-25T18:44:08.600Z,92096.69
2022-09-25T18:46:40.923Z,92100.56
2022-09-25T18:49:13.436Z,92104.19
2022-09-25T18:51:47.094Z,92102.56
2022-09-25T18:54:20.047Z,92105.97
2022-09-25T18:56:52.509Z,92108.03
2022-09-25T18:59:25.176Z,92106.38
2022-09-25T19:01:57.633Z,92107.69
2022-09-25T19:04:30.005Z,92105.97
2022-09-25T19:07:03.019Z,92106.72
2022-09-25T19:09:35.304Z,92109.34
2022-09-25T19:12:07.618Z,92090.72
2022-09-25T19:14:40.660Z,92097.72
2022-09-25T19:17:14.208Z,92103.09
2022-09-25T19:19:47.024Z,92106.94
2022-09-25T19:22:21.098Z,92099.03
2022-09-25T19:24:54.604Z,92101.47
2022-09-25T19:27:28.564Z,92098.53
2022-09-25T19:30:00.842Z,92090.81
2022-09-25T19:32:33.234Z,92101.03
2022-09-25T19:35:06.046Z,92106.94
2022-09-25T19:37:41.312Z,92094.88
2022-09-25T19:40:31.937Z,92102.75
2022-09-25T19:43:04.510Z,92091.16
2022-09-25T19:45:36.812Z,92089.06
2022-09-25T19:48:09.131Z,92092.34
2022-09-25T19:50:41.839Z,92093.34
2022-09-25T19:53:16.058Z,92086.31
2022-09-25T19:55:50.701Z,92087.75
2022-09-25T19:58:23.585Z,92091.13
2022-09-25T20:00:57.516Z,92086.44
2022-09-25T20:03:29.807Z,92084.66
2022-09-25T20:06:02.364Z,92084.22
2022-09-25T20:08:35.541Z,92080.19
2022-09-25T20:11:16.431Z,92083.56
2022-09-25T20:13:50.531Z,92092.47
2022-09-25T20:16:24.841Z,92092.91
2022-09-25T20:18:59.496Z,92090.72
2022-09-25T20:21:33.666Z,92094.56
2022-09-25T20:24:07.765Z,92079.31
2022-09-25T20:26:40.328Z,92084.91
2022-09-25T20:29:14.192Z,92079.31
2022-09-25T20:31:46.940Z,92075.69
2022-09-25T20:34:20.262Z,92076.78
2022-09-25T20:36:52.571Z,92075.91
2022-09-25T20:39:26.747Z,92085.88
2022-09-25T20:41:59.137Z,92084.03
2022-09-25T20:44:31.518Z,92074.25
2022-09-25T20:47:03.932Z,92083.34
2022-09-25T20:49:36.263Z,92080.38
2022-09-25T20:52:09.343Z,92077.97
2022-09-25T20:54:42.337Z,92074.47
2022-09-25T20:57:14.634Z,92087.06
2022-09-25T20:59:46.930Z,92079.50
2022-09-25T21:02:19.339Z,92080.72
2022-09-25T21:04:52.767Z,92078.88
2022-09-25T21:07:25.746Z,92075.13
2022-09-25T21:09:58.687Z,92073.94
2022-09-25T21:12:30.947Z,92068.03
2022-09-25T21:15:03.660Z,92069.56
2022-09-25T21:17:36.051Z,92070.09
2022-09-25T21:20:09.111Z,92067.78
2022-09-25T21:22:41.557Z,92068.34
2022-09-25T21:25:14.727Z,92068.22
2022-09-25T21:27:47.021Z,92060.78
2022-09-25T21:30:19.348Z,92058.34
2022-09-25T21:32:53.015Z,92063.91
2022-09-25T21:35:25.514Z,92054.25
2022-09-25T21:37:57.815Z,92059.50
2022-09-25T21:40:30.889Z,92049.84
2022-09-25T21:43:03.243Z,92041.84
2022-09-25T21:45:35.526Z,92039.22
2022-09-25T21:48:08.302Z,92024.53
2022-09-25T21:50:51.062Z,92032.81
2022-09-25T21:53:24.352Z,92028.53
2022-09-25T21:56:01.420Z,92023.16
2022-09-25T21:58:34.373Z,92028.72
2022-09-25T22:01:09.043Z,92027.50
2022-09-25T22:03:43.408Z,92019.44
2022-09-25T22:06:17.693Z,92026.47
2022-09-25T22:08:53.456Z,92023.63
2022-09-25T22:11:27.079Z,92019.81
2022-09-25T22:13:59.965Z,92023.19
2022-09-25T22:16:34.250Z,92008.31
2022-09-25T22:19:14.371Z,92008.44
2022-09-25T22:21:48.947Z,92016.06
2022-09-25T22:24:21.917Z,92016.06
2022-09-25T22:26:55.775Z,92018.81
2022-09-25T22:29:28.194Z,92025.94
2022-09-25T22:32:00.968Z,92029.75
2022-09-25T22:34:33.230Z,92034.38
2022-09-25T22:37:05.543Z,92038.84
2022-09-25T22:39:37.844Z,92037.44
2022-09-25T22:42:10.831Z,92034.25
2022-09-25T22:44:43.141Z,92031.28
2022-09-25T22:47:15.444Z,92035.88
2022-09-25T22:49:47.767Z,92048.25
2022-09-25T22:52:20.087Z,92044.53
2022-09-25T22:54:52.404Z,92047.94
2022-09-25T22:57:25.413Z,92037.56
2022-09-25T22:59:57.747Z,92020.25
2022-09-25T23:02:30.125Z,92032.31
2022-09-25T23:05:06.303Z,92030.31
2022-09-25T23:07:39.275Z,92034.44
2022-09-25T23:10:11.622Z,92026.44
2022-09-25T23:12:44.610Z,92020.81
2022-09-25T23:15:17.085Z,92017.47
2022-09-25T23:17:49.395Z,92017.94
2022-09-25T23:20:21.740Z,92002.44
2022-09-25T23:22:55.962Z,92029.00
2022-09-25T23:25:28.233Z,92021.69
2022-09-25T23:28:01.821Z,92017.31
2022-09-25T23:30:34.205Z,92020.72
2022-09-25T23:33:06.551Z,92017.91
2022-09-25T23:35:38.842Z,92008.94
2022-09-25T23:38:11.528Z,92012.97
2022-09-25T23:40:43.870Z,92012.97
2022-09-25T23:43:17.294Z,92003.88
2022-09-25T23:45:49.908Z,92009.22
2022-09-25T23:48:22.293Z,92010.94
2022-09-25T23:50:54.567Z,91999.91
2022-09-25T23:53:26.806Z,91995.09
2022-09-25T23:56:03.783Z,92002.88
2022-09-25T23:58:36.906Z,92006.47
